Time;durP1;ratioP1;P1;durP2;ratioP2;P2;SDS_P1;SDS_P2;PMS_P1;PMS_P2;Temp;Humidity;BMP_temperature;BMP_pressure;BME280_temperature;BME280_humidity;BME280_pressure;Samples;Min_cycle;Max_cycle;Signal;HPM_P1;HPM_P2
2024/02/08 00:00:46;;;;;;;1.10;0.30;;;;;;;3.05;100.00;98864.50;104681;1262;67379;-53
2024/02/08 00:03:14;;;;;;;0.20;0.20;;;;;;;3.06;100.00;98874.05;105348;1256;71617;-56
2024/02/08 00:05:41;;;;;;;0.20;0.20;;;;;;;3.08;100.00;98878.94;104863;1256;60822;-54
2024/02/08 00:08:11;;;;;;;0.60;0.10;;;;;;;3.10;100.00;98879.77;104736;1254;60568;-58
2024/02/08 00:12:54;;;;;;;1.00;0.20;;;;;;;3.13;100.00;98998.09;101873;1295;600917;-52
2024/02/08 00:15:22;;;;;;;0.20;0.20;;;;;;;3.12;100.00;98999.90;104076;1272;59314;-57
2024/02/08 00:17:49;;;;;;;1.00;0.20;;;;;;;3.12;100.00;98990.67;103967;1270;59984;-52
2024/02/08 00:20:17;;;;;;;0.50;0.30;;;;;;;3.13;100.00;98993.48;104157;1267;71034;-59
2024/02/08 00:22:46;;;;;;;2.50;0.30;;;;;;;3.11;100.00;98999.02;104135;1267;67409;-56
2024/02/08 00:25:14;;;;;;;0.30;0.30;;;;;;;3.11;100.00;98996.36;104747;1270;70352;-55
2024/02/08 00:27:41;;;;;;;0.60;0.30;;;;;;;3.12;100.00;98990.51;104081;1269;203089;-54
2024/02/08 00:30:08;;;;;;;0.60;0.30;;;;;;;3.14;100.00;98991.86;104195;1269;59266;-55
2024/02/08 00:32:36;;;;;;;0.30;0.20;;;;;;;3.14;100.00;98993.09;104825;1264;71172;-57
2024/02/08 00:35:04;;;;;;;0.30;0.30;;;;;;;3.16;100.00;98987.33;104181;1263;66728;-55
2024/02/08 00:37:37;;;;;;;0.30;0.20;;;;;;;3.20;100.00;98990.08;104653;1268;73202;-53
2024/02/08 00:40:08;;;;;;;0.30;0.20;;;;;;;3.20;100.00;98996.44;104329;1264;59667;-55
2024/02/08 00:42:35;;;;;;;0.30;0.20;;;;;;;3.22;100.00;98995.33;104607;1266;59585;-51
2024/02/08 00:45:03;;;;;;;0.40;0.20;;;;;;;3.22;100.00;98997.45;103987;1266;73068;-56
2024/02/08 00:47:30;;;;;;;0.60;0.40;;;;;;;3.22;100.00;99001.91;107906;1267;65487;-53
2024/02/08 00:49:59;;;;;;;1.10;0.20;;;;;;;3.20;100.00;99004.77;104024;1268;71822;-53
2024/02/08 00:52:26;;;;;;;1.00;0.20;;;;;;;3.18;100.00;98999.69;103974;1267;59755;-54
2024/02/08 00:54:54;;;;;;;0.40;0.30;;;;;;;3.15;100.00;99001.90;104005;1264;60624;-55
2024/02/08 00:57:21;;;;;;;0.40;0.30;;;;;;;3.13;100.00;98994.90;104195;1264;73278;-55
2024/02/08 00:59:49;;;;;;;0.30;0.20;;;;;;;3.12;100.00;98994.59;104279;1264;66051;-56
2024/02/08 01:02:16;;;;;;;0.30;0.20;;;;;;;3.10;100.00;98982.04;104231;1264;72799;-52
2024/02/08 01:04:48;;;;;;;0.50;0.30;;;;;;;3.09;100.00;98989.33;103917;1269;62192;-55
2024/02/08 01:07:16;;;;;;;0.80;0.30;;;;;;;3.09;100.00;98989.16;108464;1267;58817;-56
2024/02/08 01:09:44;;;;;;;0.60;0.30;;;;;;;3.11;100.00;98990.88;108290;1267;73258;-54
2024/02/08 01:12:12;;;;;;;0.40;0.20;;;;;;;3.13;100.00;98999.16;108323;1266;65769;-57
2024/02/08 01:14:39;;;;;;;1.90;0.30;;;;;;;3.13;100.00;98991.34;108383;1266;72730;-56
2024/02/08 01:17:06;;;;;;;0.30;0.20;;;;;;;3.14;100.00;98998.06;108300;1266;60928;-57
2024/02/08 01:19:34;;;;;;;0.50;0.30;;;;;;;3.15;100.00;99002.63;108339;1266;58850;-56
2024/02/08 01:22:01;;;;;;;0.80;0.20;;;;;;;3.18;100.00;99001.13;108391;1266;71870;-56
2024/02/08 01:24:28;;;;;;;0.30;0.20;;;;;;;3.21;100.00;99005.46;108256;1266;66009;-55
2024/02/08 01:26:56;;;;;;;0.40;0.20;;;;;;;3.22;100.00;99007.56;106598;1267;71915;-53
2024/02/08 01:29:27;;;;;;;1.60;0.20;;;;;;;3.24;100.00;99015.45;108286;1266;59734;-56
2024/02/08 01:31:54;;;;;;;0.30;0.20;;;;;;;3.25;100.00;99018.63;106982;1266;60640;-59
2024/02/08 01:34:28;;;;;;;0.40;0.30;;;;;;;3.24;100.00;99023.09;103998;1272;72269;-56
2024/02/08 01:36:59;;;;;;;0.50;0.40;;;;;;;3.22;100.00;99017.66;108362;1270;66989;-55
2024/02/08 01:39:26;;;;;;;0.40;0.30;;;;;;;3.19;100.00;99015.98;104779;1270;71519;-53
2024/02/08 01:41:54;;;;;;;0.30;0.20;;;;;;;3.15;100.00;99016.45;104036;1267;61784;-56
2024/02/08 01:44:21;;;;;;;0.40;0.30;;;;;;;3.09;100.00;99011.48;104095;1272;59631;-58
2024/02/08 01:46:50;;;;;;;0.40;0.20;;;;;;;3.05;100.00;99016.23;104158;1271;73022;-53
2024/02/08 01:49:25;;;;;;;0.30;0.20;;;;;;;3.00;100.00;99012.09;104759;1272;65157;-56
2024/02/08 01:51:59;;;;;;;0.30;0.20;;;;;;;2.99;100.00;99021.00;104226;1271;72715;-55
2024/02/08 01:54:28;;;;;;;0.20;0.10;;;;;;;2.98;100.00;99022.25;104134;1267;60959;-54
2024/02/08 01:56:59;;;;;;;0.20;0.20;;;;;;;2.98;100.00;99021.54;103781;1272;59890;-56
2024/02/08 01:59:27;;;;;;;0.30;0.20;;;;;;;3.00;100.00;99014.22;104283;1270;73508;-54
2024/02/08 02:01:56;;;;;;;0.30;0.10;;;;;;;3.01;100.00;99019.52;104104;1267;65812;-55
2024/02/08 02:04:23;;;;;;;0.30;0.20;;;;;;;3.02;100.00;99021.98;104173;1267;72721;-59
2024/02/08 02:06:51;;;;;;;0.80;0.20;;;;;;;3.00;100.00;99024.15;103950;1267;59811;-56
2024/02/08 02:09:24;;;;;;;0.40;0.20;;;;;;;2.98;100.00;99032.35;104255;1271;59690;-56
2024/02/08 02:12:10;;;;;;;0.50;0.30;;;;;;;2.96;100.00;99027.85;104493;1272;72098;-56
2024/02/08 02:14:38;;;;;;;0.40;0.20;;;;;;;2.91;100.00;99038.59;104905;1270;67549;-53
2024/02/08 02:17:11;;;;;;;0.60;0.20;;;;;;;2.87;100.00;99031.83;104303;1272;73272;-55
2024/02/08 02:19:39;;;;;;;0.30;0.20;;;;;;;2.82;100.00;99042.05;105415;1263;60943;-56
2024/02/08 02:22:08;;;;;;;0.90;0.30;;;;;;;2.79;100.00;99041.08;104871;1266;59749;-54
2024/02/08 02:24:42;;;;;;;0.80;0.10;;;;;;;2.80;100.00;99035.91;104519;1266;73152;-54
2024/02/08 02:27:10;;;;;;;0.30;0.20;;;;;;;2.79;100.00;99037.37;104416;1267;66878;-56
2024/02/08 02:29:38;;;;;;;0.50;0.20;;;;;;;2.79;100.00;99040.74;104762;1267;72737;-59
2024/02/08 02:32:20;;;;;;;0.40;0.20;;;;;;;2.78;100.00;99042.87;105255;1264;59788;-55
2024/02/08 02:34:53;;;;;;;0.20;0.10;;;;;;;2.78;100.00;99042.54;104811;1264;59967;-58
2024/02/08 02:37:22;;;;;;;0.20;0.20;;;;;;;2.76;100.00;99045.95;104658;1267;72535;-55
2024/02/08 02:39:50;;;;;;;0.30;0.20;;;;;;;2.76;100.00;99048.08;104614;1263;65721;-52
2024/02/08 02:42:18;;;;;;;0.50;0.20;;;;;;;2.74;100.00;99044.93;104876;1264;72679;-56
2024/02/08 02:44:45;;;;;;;0.20;0.20;;;;;;;2.74;100.00;99039.63;104198;1269;59659;-56
2024/02/08 02:47:13;;;;;;;0.30;0.20;;;;;;;2.73;100.00;99049.20;104152;1269;59702;-54
2024/02/08 02:49:41;;;;;;;0.50;0.30;;;;;;;2.70;100.00;99046.48;105624;1262;72154;-54
2024/02/08 02:52:08;;;;;;;1.00;0.20;;;;;;;2.66;100.00;99037.89;104447;1264;65669;-55
2024/02/08 02:54:36;;;;;;;0.40;0.20;;;;;;;2.63;100.00;99037.64;105280;1260;72647;-56
2024/02/08 02:57:04;;;;;;;2.40;0.60;;;;;;;2.58;100.00;99029.98;104900;1259;59765;-56
2024/02/08 02:59:31;;;;;;;0.20;0.20;;;;;;;2.54;100.00;99034.52;104702;1263;60087;-55
2024/02/08 03:01:59;;;;;;;0.30;0.20;;;;;;;2.53;100.00;99039.16;104524;1263;72978;-56
2024/02/08 03:04:27;;;;;;;0.20;0.20;;;;;;;2.52;100.00;99040.95;105284;1263;67047;-56
2024/02/08 03:06:55;;;;;;;0.10;0.10;;;;;;;2.50;100.00;99055.00;104596;1260;71476;-56
2024/02/08 03:09:27;;;;;;;0.50;0.10;;;;;;;2.47;100.00;99062.48;104589;1262;59746;-56
2024/02/08 03:11:57;;;;;;;0.20;0.10;;;;;;;2.45;100.00;99066.11;104522;1259;60554;-55
2024/02/08 03:14:25;;;;;;;0.30;0.10;;;;;;;2.44;100.00;99067.91;106228;1258;73063;-55
2024/02/08 03:17:00;;;;;;;0.10;0.10;;;;;;;2.43;100.00;99072.17;104516;1263;66941;-57
2024/02/08 03:19:30;;;;;;;0.10;0.10;;;;;;;2.43;100.00;99078.38;104901;1257;71642;-59
2024/02/08 03:21:58;;;;;;;0.10;0.10;;;;;;;2.43;100.00;99073.79;104420;1263;60674;-56
2024/02/08 03:24:28;;;;;;;0.20;0.10;;;;;;;2.39;100.00;99076.17;104506;1258;60445;-56
2024/02/08 03:26:56;;;;;;;0.50;0.20;;;;;;;2.35;100.00;99088.35;104944;1263;73011;-56
2024/02/08 03:29:23;;;;;;;0.40;0.20;;;;;;;2.31;100.00;99087.71;105117;1259;64781;-58
2024/02/08 03:31:52;;;;;;;0.40;0.20;;;;;;;2.27;100.00;99087.12;104640;1257;72694;-59
2024/02/08 03:34:23;;;;;;;0.30;0.20;;;;;;;2.23;100.00;99089.86;104818;1258;59927;-54
2024/02/08 03:36:51;;;;;;;0.10;0.10;;;;;;;2.20;100.00;99089.58;104772;1263;59557;-56
2024/02/08 03:39:25;;;;;;;0.30;0.10;;;;;;;2.18;100.00;99086.11;104768;1264;72935;-55
2024/02/08 03:41:58;;;;;;;0.40;0.20;;;;;;;2.19;100.00;99092.83;105038;1257;66760;-54
2024/02/08 03:44:26;;;;;;;0.20;0.10;;;;;;;2.20;100.00;99105.36;104673;1263;72805;-56
2024/02/08 03:46:53;;;;;;;0.20;0.10;;;;;;;2.20;100.00;99106.77;104804;1263;60859;-55
2024/02/08 03:49:21;;;;;;;0.20;0.10;;;;;;;2.21;100.00;99114.02;104794;1262;60129;-53
2024/02/08 03:51:49;;;;;;;0.20;0.20;;;;;;;2.22;100.00;99119.09;104582;1257;73092;-56
2024/02/08 03:54:16;;;;;;;0.20;0.10;;;;;;;2.24;100.00;99126.67;108612;1257;65071;-56
2024/02/08 03:56:45;;;;;;;0.20;0.10;;;;;;;2.24;100.00;99130.02;108639;1257;71397;-56
2024/02/08 03:59:26;;;;;;;0.20;0.10;;;;;;;2.24;100.00;99134.98;106819;1261;59666;-51
2024/02/08 04:02:03;;;;;;;0.10;0.10;;;;;;;2.22;100.00;99136.63;104558;1261;61935;-56
2024/02/08 04:04:50;;;;;;;0.30;0.20;;;;;;;2.18;100.00;99143.27;106556;1260;71741;-57
2024/02/08 04:07:45;;;;;;;0.50;0.10;;;;;;;2.14;100.00;99147.77;108740;1263;64900;-59
2024/02/08 04:55:10;;;;;;;0.20;0.10;;;;;;;1.55;100.00;99152.34;104346;1266;60847;-52
2024/02/08 04:57:39;;;;;;;0.30;0.20;;;;;;;1.52;100.00;99150.83;104353;1258;60456;-53
2024/02/08 05:00:12;;;;;;;0.50;0.10;;;;;;;1.52;100.00;99155.95;104555;1273;73971;-55
2024/02/08 05:02:40;;;;;;;0.40;0.20;;;;;;;1.50;100.00;99162.34;108637;1261;66746;-56
2024/02/08 05:05:11;;;;;;;0.60;0.30;;;;;;;1.50;100.00;99171.89;105052;1263;72759;-56
2024/02/08 05:07:39;;;;;;;0.30;0.20;;;;;;;1.50;100.00;99175.09;104448;1263;60482;-54
2024/02/08 05:10:08;;;;;;;0.40;0.20;;;;;;;1.47;100.00;99177.08;107862;1262;59992;-55
2024/02/08 05:12:36;;;;;;;0.60;0.40;;;;;;;1.45;100.00;99181.20;105801;1257;74287;-53
2024/02/08 05:15:06;;;;;;;0.30;0.30;;;;;;;1.41;100.00;99192.42;104623;1266;65699;-58
2024/02/08 05:17:34;;;;;;;0.40;0.30;;;;;;;1.38;100.00;99194.41;104546;1264;73153;-58
2024/02/08 05:20:04;;;;;;;0.50;0.30;;;;;;;1.35;100.00;99199.98;104484;1259;60421;-56
2024/02/08 05:22:32;;;;;;;0.50;0.20;;;;;;;1.33;100.00;99207.61;104981;1260;60799;-57
2024/02/08 05:25:00;;;;;;;0.50;0.30;;;;;;;1.32;100.00;99209.22;104443;1257;71752;-56
2024/02/08 05:27:27;;;;;;;0.70;0.30;;;;;;;1.32;100.00;99213.29;104482;1257;65483;-58
2024/02/08 05:29:55;;;;;;;0.60;0.40;;;;;;;1.32;100.00;99217.70;104472;1264;71392;-56
2024/02/08 05:32:23;;;;;;;1.00;0.50;;;;;;;1.33;100.00;99222.80;108104;1257;60921;-59
2024/02/08 05:34:51;;;;;;;0.80;0.30;;;;;;;1.35;100.00;99227.89;105062;1259;60507;-54
2024/02/08 05:37:25;;;;;;;0.90;0.30;;;;;;;1.37;100.00;99232.62;104693;1260;73707;-57
2024/02/08 05:39:53;;;;;;;0.60;0.40;;;;;;;1.39;100.00;99238.59;105319;1261;67667;-58
2024/02/08 05:42:24;;;;;;;1.20;0.80;;;;;;;1.40;100.00;99242.12;105048;1261;70820;-54
2024/02/08 05:45:12;;;;;;;1.10;0.40;;;;;;;1.40;100.00;99243.88;104513;1261;60908;-57
2024/02/08 05:47:40;;;;;;;0.80;0.50;;;;;;;1.40;100.00;99248.30;108692;1260;61027;-55
2024/02/08 05:50:08;;;;;;;2.30;0.50;;;;;;;1.38;100.00;99250.63;108605;1257;74296;-56
2024/02/08 05:52:38;;;;;;;2.10;0.50;;;;;;;1.37;100.00;99251.02;108554;1257;65788;-59
2024/02/08 05:55:10;;;;;;;0.60;0.40;;;;;;;1.36;100.00;99250.84;105811;1264;72701;-59
2024/02/08 05:57:44;;;;;;;0.60;0.30;;;;;;;1.35;100.00;99255.48;108835;1259;60969;-55
2024/02/08 06:00:32;;;;;;;0.50;0.40;;;;;;;1.35;100.00;99262.73;105342;1263;60618;-56
2024/02/08 06:03:03;;;;;;;0.60;0.40;;;;;;;1.34;100.00;99265.58;104705;1262;74099;-56
2024/02/08 06:05:31;;;;;;;1.20;0.60;;;;;;;1.35;100.00;99263.27;104558;1261;67028;-59
2024/02/08 06:08:02;;;;;;;1.50;0.50;;;;;;;1.37;100.00;99268.32;104716;1263;72977;-58
2024/02/08 06:10:42;;;;;;;1.20;0.60;;;;;;;1.40;100.00;99277.13;105008;1257;60895;-54
2024/02/08 06:13:14;;;;;;;0.80;0.50;;;;;;;1.44;100.00;99272.98;104906;1264;60390;-58
2024/02/08 06:15:46;;;;;;;3.20;0.70;;;;;;;1.49;100.00;99281.90;104773;1262;73792;-54
2024/02/08 06:18:19;;;;;;;0.80;0.70;;;;;;;1.53;100.00;99284.48;105908;1261;65806;-56
2024/02/08 06:20:51;;;;;;;1.00;0.60;;;;;;;1.56;100.00;99285.29;105071;1264;72705;-54
2024/02/08 06:23:27;;;;;;;1.10;0.60;;;;;;;1.61;100.00;99291.23;105290;1257;60543;-57
2024/02/08 06:29:05;;;;;;;0.50;0.40;;;;;;;1.69;100.00;99296.73;104523;1262;71710;-57
2024/02/08 06:31:40;;;;;;;1.00;0.40;;;;;;;1.75;100.00;99301.90;105290;1263;68349;-55
2024/02/08 06:34:27;;;;;;;0.50;0.30;;;;;;;1.79;100.00;99305.89;105167;1261;74917;-55
2024/02/08 06:37:00;;;;;;;0.40;0.20;;;;;;;1.83;100.00;99310.42;107504;1258;63519;-54
2024/02/08 06:39:29;;;;;;;0.30;0.20;;;;;;;1.84;100.00;99309.50;105236;1261;60546;-56
2024/02/08 06:42:29;;;;;;;0.90;0.30;;;;;;;1.86;100.00;99316.55;105058;1259;74321;-56
2024/02/08 06:48:32;;;;;;;0.80;0.50;;;;;;;1.89;100.00;99326.38;104710;1257;72851;-57
2024/02/08 07:41:23;;;;;;;0.80;0.40;;;;;;;2.40;100.00;99374.89;104937;1259;65285;-54
2024/02/08 07:43:57;;;;;;;0.60;0.40;;;;;;;2.39;100.00;99376.34;104876;1260;72797;-56
2024/02/08 07:46:29;;;;;;;0.60;0.60;;;;;;;2.34;100.00;99382.98;105562;1254;60492;-56
2024/02/08 07:48:58;;;;;;;0.80;0.50;;;;;;;2.30;100.00;99383.24;104913;1254;60592;-53
2024/02/08 07:51:28;;;;;;;1.60;0.50;;;;;;;2.27;100.00;99381.73;105002;1256;72567;-54
2024/02/08 07:53:58;;;;;;;1.60;0.50;;;;;;;2.26;100.00;99384.39;105637;1254;65651;-56
2024/02/08 07:56:46;;;;;;;0.50;0.30;;;;;;;2.24;100.00;99382.83;105001;1254;71544;-55
2024/02/08 07:59:26;;;;;;;0.80;0.40;;;;;;;2.24;100.00;99382.31;105085;1254;60844;-51
2024/02/08 08:01:57;;;;;;;0.80;0.40;;;;;;;2.23;100.00;99387.81;108399;1254;59324;-55
2024/02/08 08:05:14;;;;;;;0.80;0.50;;;;;;;2.26;100.00;99389.71;106207;1253;73896;-59
2024/02/08 08:07:23;;;;;;;1.40;0.40;;;;;;;2.31;100.00;99402.89;104926;1254;66083;-58
2024/02/08 08:09:59;;;;;;;0.80;0.40;;;;;;;2.36;100.00;99409.88;105961;1254;71501;-54
2024/02/08 08:12:31;;;;;;;0.70;0.40;;;;;;;2.40;100.00;99414.38;105339;1254;60569;-55
2024/02/08 08:17:40;;;;;;;0.50;0.20;;;;;;;2.38;100.00;99418.52;104985;1260;72690;-55
2024/02/08 08:20:56;;;;;;;0.30;0.20;;;;;;;2.29;100.00;99434.44;105473;1254;67355;-55
2024/02/08 08:23:25;;;;;;;0.30;0.20;;;;;;;2.20;100.00;99443.45;105023;1254;72426;-55
2024/02/08 08:26:05;;;;;;;0.20;0.10;;;;;;;2.08;100.00;99442.27;105070;1254;61895;-55
2024/02/08 08:28:40;;;;;;;1.10;0.20;;;;;;;1.92;100.00;99451.09;104806;1254;60161;-56
2024/02/08 08:35:02;;;;;;;0.30;0.20;;;;;;;1.68;100.00;99453.98;105153;1254;66323;-55
2024/02/08 08:36:58;;;;;;;0.20;0.10;;;;;;;1.62;100.00;99455.16;105063;1257;70399;-55
2024/02/08 08:42:23;;;;;;;0.50;0.20;;;;;;;1.60;100.00;99457.14;105050;1254;60488;-54
2024/02/08 08:44:56;;;;;;;0.60;0.30;;;;;;;1.60;100.00;99460.69;106802;1254;72680;-55
2024/02/08 08:47:27;;;;;;;0.50;0.30;;;;;;;1.59;100.00;99465.64;105389;1254;65681;-58
2024/02/08 08:49:56;;;;;;;0.40;0.30;;;;;;;1.59;100.00;99461.04;104977;1254;73109;-54
2024/02/08 08:52:23;;;;;;;1.30;0.60;;;;;;;1.56;100.00;99459.31;104896;1256;60469;-59
2024/02/08 08:55:10;;;;;;;1.00;0.50;;;;;;;1.53;100.00;99458.30;105123;1254;60665;-55
2024/02/08 08:57:38;;;;;;;0.90;0.50;;;;;;;1.54;100.00;99464.83;104839;1254;72657;-55
2024/02/08 09:00:19;;;;;;;1.00;0.60;;;;;;;1.57;100.00;99460.37;105158;1253;65505;-55
2024/02/08 09:02:50;;;;;;;1.30;0.60;;;;;;;1.62;100.00;99465.06;105081;1257;71590;-56
2024/02/08 09:05:21;;;;;;;0.80;0.50;;;;;;;1.66;100.00;99466.58;105418;1255;60523;-56
2024/02/08 09:07:53;;;;;;;0.80;0.50;;;;;;;1.69;100.00;99467.96;107250;1254;60464;-55
2024/02/08 09:10:21;;;;;;;1.30;0.60;;;;;;;1.72;100.00;99471.25;105064;1254;74110;-55
2024/02/08 09:13:26;;;;;;;1.20;0.80;;;;;;;1.76;100.00;99472.79;104810;1254;67762;-57
2024/02/08 09:15:55;;;;;;;1.40;0.80;;;;;;;1.78;100.00;99479.82;105038;1254;71911;-55
2024/02/08 09:18:57;;;;;;;1.30;0.70;;;;;;;1.80;100.00;99479.95;105511;1254;60574;-55
2024/02/08 09:21:12;;;;;;;0.70;0.50;;;;;;;1.78;100.00;99473.27;104949;1254;60966;-54
2024/02/08 09:23:40;;;;;;;2.60;0.80;;;;;;;1.77;100.00;99472.41;105057;1254;73926;-55
2024/02/08 09:26:11;;;;;;;0.90;0.50;;;;;;;1.72;100.00;99471.95;106915;1254;69094;-59
2024/02/08 09:28:42;;;;;;;0.60;0.40;;;;;;;1.70;100.00;99470.77;104761;1253;71568;-55
2024/02/08 09:31:14;;;;;;;0.60;0.40;;;;;;;1.69;100.00;99473.43;105319;1254;60386;-55
2024/02/08 09:33:45;;;;;;;0.90;0.50;;;;;;;1.68;100.00;99477.34;105785;1256;60383;-57
2024/02/08 09:36:14;;;;;;;0.50;0.40;;;;;;;1.71;100.00;99475.34;104682;1256;73926;-57
2024/02/08 09:38:45;;;;;;;0.80;0.50;;;;;;;1.72;100.00;99477.96;106524;1253;69051;-59
2024/02/08 09:41:15;;;;;;;0.80;0.50;;;;;;;1.75;100.00;99480.40;105729;1254;72732;-60
2024/02/08 09:43:44;;;;;;;1.80;0.50;;;;;;;1.77;100.00;99487.09;106825;1254;60336;-59
2024/02/08 09:49:13;;;;;;;1.10;0.50;;;;;;;1.73;100.00;99494.40;105190;1254;74096;-59
2024/02/08 09:51:52;;;;;;;0.70;0.40;;;;;;;1.71;100.00;99495.14;107554;1254;66918;-60
2024/02/08 09:54:30;;;;;;;0.80;0.50;;;;;;;1.73;100.00;99494.23;104903;1256;72682;-59
2024/02/08 09:57:03;;;;;;;2.20;0.40;;;;;;;1.73;100.00;99495.29;109135;1253;59030;-63
2024/02/08 10:02:24;;;;;;;0.40;0.40;;;;;;;1.75;100.00;99511.01;109070;1252;74355;-60
2024/02/08 10:04:56;;;;;;;0.60;0.40;;;;;;;1.74;100.00;99505.71;109152;1254;66968;-59
2024/02/08 10:10:20;;;;;;;0.50;0.40;;;;;;;1.83;100.00;99518.65;108879;1254;58501;-61
2024/02/08 10:13:04;;;;;;;0.40;0.40;;;;;;;1.87;100.00;99517.52;109021;1253;58838;-59
2024/02/08 10:15:45;;;;;;;1.10;0.40;;;;;;;1.92;100.00;99523.10;108811;1253;74019;-58
2024/02/08 10:18:22;;;;;;;0.50;0.30;;;;;;;1.98;100.00;99529.71;109143;1253;66094;-60
2024/02/08 10:20:50;;;;;;;0.50;0.40;;;;;;;2.02;100.00;99532.66;108960;1253;72686;-62
2024/02/08 10:23:38;;;;;;;0.40;0.30;;;;;;;2.04;100.00;99534.75;108251;1253;58967;-58
2024/02/08 10:26:21;;;;;;;1.10;0.30;;;;;;;2.01;100.00;99537.98;109025;1253;60078;-59
2024/02/08 10:28:54;;;;;;;0.90;0.30;;;;;;;2.03;100.00;99537.98;108937;1253;74279;-60
2024/02/08 10:31:24;;;;;;;0.80;0.40;;;;;;;2.07;100.00;99538.06;109082;1254;67568;-60
2024/02/08 10:34:23;;;;;;;1.30;0.30;;;;;;;2.14;100.00;99541.30;108745;1254;75117;-59
2024/02/08 10:36:53;;;;;;;1.20;0.60;;;;;;;2.23;100.00;99548.56;104687;1253;60549;-58
2024/02/08 10:39:24;;;;;;;0.50;0.30;;;;;;;2.32;100.00;99543.45;107647;1256;60543;-59
2024/02/08 10:41:59;;;;;;;0.60;0.30;;;;;;;2.41;100.00;99539.91;105100;1254;75262;-57
2024/02/08 10:44:34;;;;;;;0.30;0.20;;;;;;;2.51;100.00;99546.45;105354;1255;66627;-58
2024/02/08 10:47:06;;;;;;;0.30;0.20;;;;;;;2.57;100.00;99543.67;106001;1256;71610;-60
2024/02/08 10:49:46;;;;;;;0.40;0.20;;;;;;;2.57;100.00;99545.09;104963;1254;60484;-61
2024/02/08 10:52:19;;;;;;;0.20;0.10;;;;;;;2.56;100.00;99548.30;104686;1257;61496;-59
2024/02/08 10:54:51;;;;;;;0.40;0.30;;;;;;;2.55;100.00;99546.40;106729;1258;74268;-59
2024/02/08 11:03:00;;;;;;;0.50;0.30;;;;;;;2.37;100.00;99547.96;104929;1254;60520;-57
2024/02/08 11:07:58;;;;;;;0.70;0.30;;;;;;;2.29;100.00;99542.46;104561;1253;72643;-61
2024/02/08 11:10:32;;;;;;;0.50;0.30;;;;;;;2.25;100.00;99545.89;106797;1255;64811;-60
2024/02/08 11:13:10;;;;;;;0.40;0.20;;;;;;;2.25;100.00;99548.89;104821;1254;72889;-59
2024/02/08 11:15:42;;;;;;;0.60;0.40;;;;;;;2.31;100.00;99554.80;104870;1254;60619;-58
2024/02/08 11:18:33;;;;;;;0.60;0.30;;;;;;;2.39;100.00;99552.35;105784;1254;60319;-59
2024/02/08 11:21:12;;;;;;;0.90;0.40;;;;;;;2.46;100.00;99552.58;104928;1254;73900;-60
2024/02/08 11:23:49;;;;;;;0.50;0.30;;;;;;;2.50;100.00;99547.52;105544;1256;66961;-61
2024/02/08 11:26:18;;;;;;;0.50;0.30;;;;;;;2.54;100.00;99547.11;104797;1256;71468;-61
2024/02/08 11:28:50;;;;;;;0.70;0.40;;;;;;;2.59;100.00;99549.85;105933;1253;60437;-58
2024/02/08 11:31:18;;;;;;;1.70;0.60;;;;;;;2.64;100.00;99546.73;104956;1254;60530;-59
2024/02/08 11:33:46;;;;;;;1.50;0.50;;;;;;;2.70;100.00;99548.58;104945;1253;74039;-58
2024/02/08 11:36:16;;;;;;;0.80;0.50;;;;;;;2.72;100.00;99545.16;105166;1258;65790;-61
2024/02/08 11:38:53;;;;;;;0.40;0.30;;;;;;;2.72;100.00;99544.45;105334;1254;73143;-60
2024/02/08 11:41:25;;;;;;;0.50;0.30;;;;;;;2.71;100.00;99543.61;105238;1256;60560;-58
2024/02/08 11:44:05;;;;;;;0.40;0.30;;;;;;;2.71;100.00;99544.30;105081;1253;60968;-61
2024/02/08 11:46:37;;;;;;;1.90;0.30;;;;;;;2.75;100.00;99546.86;105203;1253;73918;-60
2024/02/08 11:49:14;;;;;;;0.30;0.30;;;;;;;2.74;100.00;99539.43;104969;1254;67007;-61
2024/02/08 11:51:48;;;;;;;1.20;0.30;;;;;;;2.75;100.00;99536.94;105228;1255;70765;-59
2024/02/08 11:54:27;;;;;;;0.40;0.30;;;;;;;2.75;100.00;99542.79;105389;1257;60470;-58
2024/02/08 11:56:58;;;;;;;0.40;0.30;;;;;;;2.72;100.00;99544.10;105242;1254;60557;-59
2024/02/08 11:59:26;;;;;;;1.00;0.40;;;;;;;2.69;100.00;99548.60;105000;1254;75077;-57
2024/02/08 12:01:54;;;;;;;1.90;0.30;;;;;;;2.65;100.00;99547.59;104801;1257;67066;-59
2024/02/08 12:04:22;;;;;;;1.40;0.40;;;;;;;2.60;100.00;99541.86;104796;1256;72840;-60
2024/02/08 12:07:02;;;;;;;0.40;0.30;;;;;;;2.55;100.00;99547.45;105542;1253;60446;-60
2024/02/08 12:09:31;;;;;;;0.70;0.30;;;;;;;2.53;100.00;99549.44;104831;1259;60557;-57
2024/02/08 12:11:59;;;;;;;0.70;0.40;;;;;;;2.52;100.00;99544.14;106374;1256;74237;-58
2024/02/08 12:14:26;;;;;;;1.60;0.40;;;;;;;2.53;100.00;99542.52;104948;1253;68558;-58
2024/02/08 12:16:57;;;;;;;0.50;0.40;;;;;;;2.54;100.00;99549.06;105162;1254;70467;-60
2024/02/08 12:19:27;;;;;;;0.50;0.30;;;;;;;2.54;100.00;99553.67;104967;1255;60447;-57
2024/02/08 12:21:58;;;;;;;0.50;0.40;;;;;;;2.55;100.00;99552.05;105278;1256;60514;-60
2024/02/08 12:24:26;;;;;;;0.60;0.30;;;;;;;2.57;100.00;99550.93;105302;1253;72661;-61
2024/02/08 12:26:54;;;;;;;0.40;0.30;;;;;;;2.58;100.00;99554.47;106817;1254;265230;-59
2024/02/08 12:30:09;;;;;;;0.60;0.30;;;;;;;2.58;100.00;99652.23;102157;1289;600827;-58
2024/02/08 12:32:36;;;;;;;0.90;0.30;;;;;;;2.57;100.00;99651.02;104049;1267;61745;-58
2024/02/08 12:35:12;;;;;;;0.50;0.30;;;;;;;2.60;100.00;99639.64;105422;1271;60076;-58
2024/02/08 12:37:41;;;;;;;0.50;0.30;;;;;;;2.67;100.00;99632.42;106887;1268;71119;-59
2024/02/08 12:40:14;;;;;;;0.40;0.20;;;;;;;2.72;100.00;99627.02;104259;1263;67363;-58
2024/02/08 12:42:42;;;;;;;0.60;0.50;;;;;;;2.75;100.00;99625.36;104768;1262;226437;-55
2024/02/08 12:45:12;;;;;;;0.50;0.30;;;;;;;2.79;100.00;99624.58;104836;1260;59470;-59
2024/02/08 12:47:40;;;;;;;0.90;0.40;;;;;;;2.83;100.00;99624.86;104968;1260;59221;-59
2024/02/08 12:50:09;;;;;;;0.40;0.30;;;;;;;2.84;100.00;99624.13;104700;1256;73003;-60
2024/02/08 12:52:57;;;;;;;0.60;0.30;;;;;;;2.86;100.00;99626.40;108957;1253;67772;-59
2024/02/08 12:55:29;;;;;;;0.30;0.20;;;;;;;2.84;100.00;99626.08;106036;1256;72773;-57
2024/02/08 12:57:58;;;;;;;0.60;0.40;;;;;;;2.80;100.00;99622.63;108836;1253;58039;-57
2024/02/08 13:00:25;;;;;;;0.50;0.40;;;;;;;2.77;100.00;99617.36;108817;1253;60243;-57
2024/02/08 13:02:54;;;;;;;0.40;0.40;;;;;;;2.76;100.00;99610.65;106500;1255;73098;-57
2024/02/08 13:05:28;;;;;;;0.20;0.20;;;;;;;2.72;100.00;99610.37;104801;1256;66226;-54
2024/02/08 13:07:58;;;;;;;1.40;0.30;;;;;;;2.63;100.00;99609.64;109032;1252;71112;-58
2024/02/08 13:10:27;;;;;;;0.40;0.40;;;;;;;2.59;100.00;99608.30;108894;1253;58642;-57
2024/02/08 13:12:59;;;;;;;0.70;0.40;;;;;;;2.57;100.00;99608.69;108985;1253;60080;-58
2024/02/08 13:15:33;;;;;;;0.50;0.40;;;;;;;2.55;100.00;99608.19;109138;1253;73568;-57
2024/02/08 13:18:02;;;;;;;0.50;0.30;;;;;;;2.55;100.00;99602.73;109114;1253;67402;-58
2024/02/08 13:20:29;;;;;;;0.40;0.30;;;;;;;2.54;100.00;99606.27;106617;1257;71290;-53
2024/02/08 13:22:57;;;;;;;0.70;0.40;;;;;;;2.55;100.00;99604.86;109004;1253;58624;-56
2024/02/08 13:25:28;;;;;;;0.90;0.40;;;;;;;2.55;100.00;99607.16;109143;1252;60063;-56
2024/02/08 13:27:58;;;;;;;0.50;0.30;;;;;;;2.54;100.00;99608.05;109182;1252;72294;-57
2024/02/08 13:30:26;;;;;;;0.60;0.30;;;;;;;2.53;100.00;99603.46;109171;1252;67174;-56
2024/02/08 13:32:55;;;;;;;0.50;0.40;;;;;;;2.51;100.00;99604.38;109043;1253;72729;-56
2024/02/08 13:35:23;;;;;;;0.80;0.40;;;;;;;2.50;100.00;99604.93;109111;1252;58126;-56
2024/02/08 13:37:52;;;;;;;0.50;0.40;;;;;;;2.48;100.00;99603.17;109103;1253;60082;-56
2024/02/08 13:40:22;;;;;;;0.60;0.50;;;;;;;2.46;100.00;99602.70;106458;1253;70756;-57
2024/02/08 13:42:56;;;;;;;0.80;0.40;;;;;;;2.44;100.00;99604.52;104852;1257;67123;-56
2024/02/08 13:45:24;;;;;;;2.40;0.40;;;;;;;2.42;100.00;99602.77;107426;1254;71544;-57
2024/02/08 13:47:56;;;;;;;0.60;0.30;;;;;;;2.40;100.00;99604.56;105015;1258;59821;-56
2024/02/08 13:50:28;;;;;;;0.50;0.40;;;;;;;2.40;100.00;99602.27;107157;1253;59559;-57
2024/02/08 13:53:01;;;;;;;2.70;0.50;;;;;;;2.38;100.00;99600.55;107909;1257;71861;-55
2024/02/08 13:55:33;;;;;;;1.20;0.50;;;;;;;2.33;100.00;99595.67;105007;1257;65835;-57